MPMG

Details ICAO MPMG (PAC)
Name ALBROOK MARCOS A GELABERT INTL
Region Panama
Timezone America/Panama (UTC-5.0)
Plans Departing 59
Arriving 47
Stats Elevation 31 ft / 9 m (AMSL)
Location 8.973341° -79.555585°
Runways 1
Magnetic Variation 4.405° W
Sunrise 2017-12-12 11:25:16 UTC / 2017-12-12 06:25:16 Local
Sunset 2017-12-12 23:01:42 UTC / 2017-12-12 18:01:42 Local
Advertisement - Login to hide

Runways

ID Width Length Bearing (true) Bearing (mag) Surface Threshold Offset Overrun Length
18 98 ft / 30 m 5,925 ft / 1,806 m 185.03° 189.43° Asphalt 541 ft / 165 m 0 ft / 0 m
36 98 ft / 30 m 5,925 ft / 1,806 m 5.03° 9.43° Asphalt 443 ft / 135 m 0 ft / 0 m

Map

Weather


0- 5 10 15 20 25 30 35+ Temperature / ° C

Clouds and Precipitation
Forecast for 2017-12-12 18:00 UTC. Updated 2 hours ago

Ground ~20,000 ft ~40,000 ft Winds

METAR

MPMG 121400Z 30010KT 270V330 9999 SCT020 26/23 Q1014 NOSIG

TAF

Not found

Frequencies

Ground 121.70 MHz GND
Approach 119.70 MHz PANAMA APP
Approach 119.20 MHz PANAMA APP
Tower 118.30 MHz GELABERT TWR
Approach 123.30 MHz PANAMA APP
Approach 121.20 MHz PANAMA APP
Warning: Do not use this data for real-world aviation or navigation. No guarantee of current accuracy is given.